sensor_id;sensor_type;location;lat;lon;timestamp;temperature;humidity
78619;DHT22;67941;52.506;5.470;2024-02-26T00:00:15;5.00;80.10
78619;DHT22;67941;52.506;5.470;2024-02-26T00:02:44;4.90;80.10
78619;DHT22;67941;52.506;5.470;2024-02-26T00:05:13;4.90;80.10
78619;DHT22;67941;52.506;5.470;2024-02-26T00:07:42;4.80;80.20
78619;DHT22;67941;52.506;5.470;2024-02-26T00:10:14;4.80;80.30
78619;DHT22;67941;52.506;5.470;2024-02-26T00:12:43;4.80;80.30
78619;DHT22;67941;52.506;5.470;2024-02-26T00:15:11;4.70;80.30
78619;DHT22;67941;52.506;5.470;2024-02-26T00:17:40;4.70;80.30
78619;DHT22;67941;52.506;5.470;2024-02-26T00:20:11;4.70;80.30
78619;DHT22;67941;52.506;5.470;2024-02-26T00:22:40;4.70;80.40
78619;DHT22;67941;52.506;5.470;2024-02-26T00:25:08;4.70;80.40
78619;DHT22;67941;52.506;5.470;2024-02-26T00:27:40;4.70;80.40
78619;DHT22;67941;52.506;5.470;2024-02-26T00:30:10;4.70;80.40
78619;DHT22;67941;52.506;5.470;2024-02-26T00:32:39;4.70;80.50
78619;DHT22;67941;52.506;5.470;2024-02-26T00:35:08;4.70;80.50
78619;DHT22;67941;52.506;5.470;2024-02-26T00:37:38;4.70;80.60
78619;DHT22;67941;52.506;5.470;2024-02-26T00:40:09;4.70;80.60
78619;DHT22;67941;52.506;5.470;2024-02-26T00:42:41;4.70;80.60
78619;DHT22;67941;52.506;5.470;2024-02-26T00:45:11;4.70;80.70
78619;DHT22;67941;52.506;5.470;2024-02-26T00:47:42;4.80;80.70
78619;DHT22;67941;52.506;5.470;2024-02-26T00:50:13;4.80;80.60
78619;DHT22;67941;52.506;5.470;2024-02-26T00:52:42;4.90;80.60
78619;DHT22;67941;52.506;5.470;2024-02-26T00:55:11;4.90;80.60
78619;DHT22;67941;52.506;5.470;2024-02-26T00:57:42;4.90;80.60
78619;DHT22;67941;52.506;5.470;2024-02-26T01:00:13;5.00;80.50
78619;DHT22;67941;52.506;5.470;2024-02-26T01:02:42;5.00;80.50
78619;DHT22;67941;52.506;5.470;2024-02-26T01:05:12;5.00;80.50
78619;DHT22;67941;52.506;5.470;2024-02-26T01:07:42;5.00;80.50
78619;DHT22;67941;52.506;5.470;2024-02-26T01:10:11;5.00;80.50
78619;DHT22;67941;52.506;5.470;2024-02-26T01:12:42;5.00;80.50
78619;DHT22;67941;52.506;5.470;2024-02-26T01:15:11;5.00;80.50
78619;DHT22;67941;52.506;5.470;2024-02-26T01:17:40;5.00;80.50
78619;DHT22;67941;52.506;5.470;2024-02-26T01:20:10;4.90;80.50
78619;DHT22;67941;52.506;5.470;2024-02-26T01:22:39;4.90;80.50
78619;DHT22;67941;52.506;5.470;2024-02-26T01:25:08;4.90;80.50
78619;DHT22;67941;52.506;5.470;2024-02-26T01:27:38;4.90;80.50
78619;DHT22;67941;52.506;5.470;2024-02-26T01:30:26;4.90;80.50
78619;DHT22;67941;52.506;5.470;2024-02-26T01:32:54;4.90;80.50
78619;DHT22;67941;52.506;5.470;2024-02-26T01:35:23;4.90;80.50
78619;DHT22;67941;52.506;5.470;2024-02-26T01:37:52;4.90;80.50
78619;DHT22;67941;52.506;5.470;2024-02-26T01:40:21;4.90;80.50
78619;DHT22;67941;52.506;5.470;2024-02-26T01:42:52;4.90;80.60
78619;DHT22;67941;52.506;5.470;2024-02-26T01:45:21;4.90;80.60
78619;DHT22;67941;52.506;5.470;2024-02-26T01:47:54;4.90;80.60
78619;DHT22;67941;52.506;5.470;2024-02-26T01:50:24;4.80;80.60
78619;DHT22;67941;52.506;5.470;2024-02-26T01:52:53;4.80;80.70
78619;DHT22;67941;52.506;5.470;2024-02-26T01:55:24;4.70;80.70
78619;DHT22;67941;52.506;5.470;2024-02-26T01:57:53;4.70;80.60
78619;DHT22;67941;52.506;5.470;2024-02-26T02:00:23;4.70;80.70
78619;DHT22;67941;52.506;5.470;2024-02-26T02:02:54;4.70;80.70
78619;DHT22;67941;52.506;5.470;2024-02-26T02:05:25;4.70;80.70
78619;DHT22;67941;52.506;5.470;2024-02-26T02:07:54;4.70;80.70
78619;DHT22;67941;52.506;5.470;2024-02-26T02:10:24;4.70;80.70
78619;DHT22;67941;52.506;5.470;2024-02-26T02:12:54;4.70;80.70
78619;DHT22;67941;52.506;5.470;2024-02-26T02:15:23;4.70;80.70
78619;DHT22;67941;52.506;5.470;2024-02-26T02:17:54;4.70;80.70
78619;DHT22;67941;52.506;5.470;2024-02-26T02:20:32;4.70;80.70
78619;DHT22;67941;52.506;5.470;2024-02-26T02:23:01;4.70;80.70
78619;DHT22;67941;52.506;5.470;2024-02-26T02:25:30;4.70;80.70
78619;DHT22;67941;52.506;5.470;2024-02-26T02:27:59;4.60;80.80
78619;DHT22;67941;52.506;5.470;2024-02-26T02:30:29;4.50;80.80
78619;DHT22;67941;52.506;5.470;2024-02-26T02:33:01;4.50;80.80
78619;DHT22;67941;52.506;5.470;2024-02-26T02:35:33;4.50;80.80
78619;DHT22;67941;52.506;5.470;2024-02-26T02:38:01;4.50;80.90
78619;DHT22;67941;52.506;5.470;2024-02-26T02:40:30;4.50;80.90
78619;DHT22;67941;52.506;5.470;2024-02-26T02:42:59;4.50;80.90
78619;DHT22;67941;52.506;5.470;2024-02-26T02:45:28;4.50;80.90
78619;DHT22;67941;52.506;5.470;2024-02-26T02:47:58;4.50;80.90
78619;DHT22;67941;52.506;5.470;2024-02-26T02:50:26;4.50;80.90
78619;DHT22;67941;52.506;5.470;2024-02-26T02:52:57;4.50;80.90
78619;DHT22;67941;52.506;5.470;2024-02-26T02:55:26;4.50;80.90
78619;DHT22;67941;52.506;5.470;2024-02-26T02:57:55;4.50;80.90
78619;DHT22;67941;52.506;5.470;2024-02-26T03:00:24;4.50;80.90
78619;DHT22;67941;52.506;5.470;2024-02-26T03:02:53;4.50;81.00
78619;DHT22;67941;52.506;5.470;2024-02-26T03:05:22;4.50;81.00
78619;DHT22;67941;52.506;5.470;2024-02-26T03:07:50;4.50;81.00
78619;DHT22;67941;52.506;5.470;2024-02-26T03:10:22;4.50;81.00
78619;DHT22;67941;52.506;5.470;2024-02-26T03:12:51;4.50;81.00
78619;DHT22;67941;52.506;5.470;2024-02-26T03:15:20;4.50;81.00
78619;DHT22;67941;52.506;5.470;2024-02-26T03:17:48;4.50;81.00
78619;DHT22;67941;52.506;5.470;2024-02-26T03:20:17;4.50;81.10
78619;DHT22;67941;52.506;5.470;2024-02-26T03:22:47;4.50;81.10
78619;DHT22;67941;52.506;5.470;2024-02-26T03:25:15;4.50;81.10
78619;DHT22;67941;52.506;5.470;2024-02-26T03:27:47;4.50;81.20
78619;DHT22;67941;52.506;5.470;2024-02-26T03:30:16;4.50;81.20
78619;DHT22;67941;52.506;5.470;2024-02-26T03:32:45;4.50;81.10
78619;DHT22;67941;52.506;5.470;2024-02-26T03:35:13;4.50;81.20
78619;DHT22;67941;52.506;5.470;2024-02-26T03:37:42;4.50;81.20
78619;DHT22;67941;52.506;5.470;2024-02-26T03:40:12;4.50;81.20
78619;DHT22;67941;52.506;5.470;2024-02-26T03:42:41;4.50;81.20
78619;DHT22;67941;52.506;5.470;2024-02-26T03:45:13;4.50;81.20
78619;DHT22;67941;52.506;5.470;2024-02-26T03:47:42;4.50;81.20
78619;DHT22;67941;52.506;5.470;2024-02-26T03:50:11;4.50;81.20
78619;DHT22;67941;52.506;5.470;2024-02-26T03:52:39;4.50;81.20
78619;DHT22;67941;52.506;5.470;2024-02-26T03:55:08;4.60;81.20
78619;DHT22;67941;52.506;5.470;2024-02-26T03:57:38;4.60;81.20
78619;DHT22;67941;52.506;5.470;2024-02-26T04:00:08;4.60;81.20
78619;DHT22;67941;52.506;5.470;2024-02-26T04:02:41;4.70;81.20
78619;DHT22;67941;52.506;5.470;2024-02-26T04:05:10;4.60;81.20
78619;DHT22;67941;52.506;5.470;2024-02-26T04:07:39;4.60;81.30
78619;DHT22;67941;52.506;5.470;2024-02-26T04:10:11;4.60;81.30
78619;DHT22;67941;52.506;5.470;2024-02-26T04:12:41;4.70;81.30
78619;DHT22;67941;52.506;5.470;2024-02-26T04:15:10;4.70;81.30
78619;DHT22;67941;52.506;5.470;2024-02-26T04:17:41;4.70;81.30
78619;DHT22;67941;52.506;5.470;2024-02-26T04:20:14;4.70;81.40
78619;DHT22;67941;52.506;5.470;2024-02-26T04:22:44;4.70;81.40
78619;DHT22;67941;52.506;5.470;2024-02-26T04:25:13;4.70;81.40
78619;DHT22;67941;52.506;5.470;2024-02-26T04:27:42;4.70;81.40
78619;DHT22;67941;52.506;5.470;2024-02-26T04:30:11;4.70;81.40
78619;DHT22;67941;52.506;5.470;2024-02-26T04:32:43;4.70;81.40
78619;DHT22;67941;52.506;5.470;2024-02-26T04:35:12;4.70;81.40
78619;DHT22;67941;52.506;5.470;2024-02-26T04:37:40;4.70;81.50
78619;DHT22;67941;52.506;5.470;2024-02-26T04:40:10;4.70;81.40
78619;DHT22;67941;52.506;5.470;2024-02-26T04:42:39;4.70;81.50
78619;DHT22;67941;52.506;5.470;2024-02-26T04:45:08;4.70;81.50
78619;DHT22;67941;52.506;5.470;2024-02-26T04:47:37;4.70;81.50
78619;DHT22;67941;52.506;5.470;2024-02-26T04:50:09;4.70;81.50
78619;DHT22;67941;52.506;5.470;2024-02-26T04:52:57;4.70;81.50
78619;DHT22;67941;52.506;5.470;2024-02-26T04:55:25;4.70;81.50
78619;DHT22;67941;52.506;5.470;2024-02-26T04:57:54;4.70;81.50
78619;DHT22;67941;52.506;5.470;2024-02-26T05:00:23;4.70;81.50
78619;DHT22;67941;52.506;5.470;2024-02-26T05:02:52;4.70;81.50
78619;DHT22;67941;52.506;5.470;2024-02-26T05:05:23;4.70;81.50
78619;DHT22;67941;52.506;5.470;2024-02-26T05:07:52;4.70;81.50
78619;DHT22;67941;52.506;5.470;2024-02-26T05:10:21;4.70;81.60
78619;DHT22;67941;52.506;5.470;2024-02-26T05:12:50;4.70;81.60
78619;DHT22;67941;52.506;5.470;2024-02-26T05:15:19;4.70;81.60
78619;DHT22;67941;52.506;5.470;2024-02-26T05:17:47;4.70;81.60
78619;DHT22;67941;52.506;5.470;2024-02-26T05:20:16;4.70;81.60
78619;DHT22;67941;52.506;5.470;2024-02-26T05:22:48;4.70;81.60
78619;DHT22;67941;52.506;5.470;2024-02-26T05:25:17;4.70;81.70
78619;DHT22;67941;52.506;5.470;2024-02-26T05:27:46;4.70;81.60
78619;DHT22;67941;52.506;5.470;2024-02-26T05:30:15;4.70;81.60
78619;DHT22;67941;52.506;5.470;2024-02-26T05:32:44;4.70;81.60
78619;DHT22;67941;52.506;5.470;2024-02-26T05:35:13;4.70;81.70
78619;DHT22;67941;52.506;5.470;2024-02-26T05:37:42;4.60;81.70
78619;DHT22;67941;52.506;5.470;2024-02-26T05:40:14;4.60;81.70
78619;DHT22;67941;52.506;5.470;2024-02-26T05:42:43;4.60;81.80
78619;DHT22;67941;52.506;5.470;2024-02-26T05:45:13;4.60;81.80
78619;DHT22;67941;52.506;5.470;2024-02-26T05:47:41;4.70;81.80
78619;DHT22;67941;52.506;5.470;2024-02-26T05:50:11;4.60;81.80
78619;DHT22;67941;52.506;5.470;2024-02-26T05:52:41;4.60;81.80
78619;DHT22;67941;52.506;5.470;2024-02-26T05:55:14;4.60;81.90
78619;DHT22;67941;52.506;5.470;2024-02-26T05:57:43;4.60;81.80
78619;DHT22;67941;52.506;5.470;2024-02-26T06:00:12;4.60;81.80
78619;DHT22;67941;52.506;5.470;2024-02-26T06:02:41;4.60;81.80
78619;DHT22;67941;52.506;5.470;2024-02-26T06:05:10;4.50;81.90
78619;DHT22;67941;52.506;5.470;2024-02-26T06:07:39;4.50;81.90
78619;DHT22;67941;52.506;5.470;2024-02-26T06:10:09;4.50;81.90
78619;DHT22;67941;52.506;5.470;2024-02-26T06:12:42;4.50;81.90
78619;DHT22;67941;52.506;5.470;2024-02-26T06:15:11;4.50;81.90
78619;DHT22;67941;52.506;5.470;2024-02-26T06:17:39;4.50;81.90
78619;DHT22;67941;52.506;5.470;2024-02-26T06:20:09;4.50;81.90
78619;DHT22;67941;52.506;5.470;2024-02-26T06:22:39;4.50;81.90
78619;DHT22;67941;52.506;5.470;2024-02-26T06:25:08;4.50;82.00
78619;DHT22;67941;52.506;5.470;2024-02-26T06:27:37;4.50;81.90
78619;DHT22;67941;52.506;5.470;2024-02-26T06:30:10;4.50;81.90
78619;DHT22;67941;52.506;5.470;2024-02-26T06:32:39;4.50;82.00
78619;DHT22;67941;52.506;5.470;2024-02-26T06:35:08;4.50;81.90
78619;DHT22;67941;52.506;5.470;2024-02-26T06:37:37;4.50;81.90
78619;DHT22;67941;52.506;5.470;2024-02-26T06:40:07;4.50;81.90
78619;DHT22;67941;52.506;5.470;2024-02-26T06:42:36;4.50;81.90
78619;DHT22;67941;52.506;5.470;2024-02-26T06:45:08;4.50;81.90
78619;DHT22;67941;52.506;5.470;2024-02-26T06:47:37;4.50;82.00
78619;DHT22;67941;52.506;5.470;2024-02-26T06:50:06;4.40;82.00
78619;DHT22;67941;52.506;5.470;2024-02-26T06:52:35;4.40;82.00
78619;DHT22;67941;52.506;5.470;2024-02-26T06:55:05;4.40;82.00
78619;DHT22;67941;52.506;5.470;2024-02-26T06:57:34;4.50;81.90
78619;DHT22;67941;52.506;5.470;2024-02-26T07:00:03;4.50;81.90
78619;DHT22;67941;52.506;5.470;2024-02-26T07:02:35;4.40;81.90
78619;DHT22;67941;52.506;5.470;2024-02-26T07:05:05;4.40;82.00
78619;DHT22;67941;52.506;5.470;2024-02-26T07:07:34;4.40;82.00
78619;DHT22;67941;52.506;5.470;2024-02-26T07:10:03;4.50;82.00
78619;DHT22;67941;52.506;5.470;2024-02-26T07:12:32;4.50;82.00
78619;DHT22;67941;52.506;5.470;2024-02-26T07:15:01;4.50;82.00
78619;DHT22;67941;52.506;5.470;2024-02-26T07:17:30;4.50;82.00
78619;DHT22;67941;52.506;5.470;2024-02-26T07:20:03;4.50;82.00
78619;DHT22;67941;52.506;5.470;2024-02-26T07:22:33;4.50;82.00
78619;DHT22;67941;52.506;5.470;2024-02-26T07:25:02;4.50;82.00
78619;DHT22;67941;52.506;5.470;2024-02-26T07:27:33;4.50;81.90
78619;DHT22;67941;52.506;5.470;2024-02-26T07:30:03;4.50;82.00
78619;DHT22;67941;52.506;5.470;2024-02-26T07:32:32;4.50;81.90
78619;DHT22;67941;52.506;5.470;2024-02-26T07:35:04;4.50;82.00
78619;DHT22;67941;52.506;5.470;2024-02-26T07:37:33;4.50;81.90
78619;DHT22;67941;52.506;5.470;2024-02-26T07:40:02;4.50;81.90
78619;DHT22;67941;52.506;5.470;2024-02-26T07:42:31;4.60;81.90
78619;DHT22;67941;52.506;5.470;2024-02-26T07:45:01;4.60;81.90
78619;DHT22;67941;52.506;5.470;2024-02-26T07:47:30;4.60;81.90
78619;DHT22;67941;52.506;5.470;2024-02-26T07:50:03;4.60;81.80
78619;DHT22;67941;52.506;5.470;2024-02-26T07:52:32;4.60;81.80
78619;DHT22;67941;52.506;5.470;2024-02-26T07:55:01;4.70;81.80
78619;DHT22;67941;52.506;5.470;2024-02-26T07:57:31;4.70;81.80
78619;DHT22;67941;52.506;5.470;2024-02-26T08:00:00;4.70;81.80
78619;DHT22;67941;52.506;5.470;2024-02-26T08:02:31;4.70;81.80
78619;DHT22;67941;52.506;5.470;2024-02-26T08:05:00;4.70;81.70
78619;DHT22;67941;52.506;5.470;2024-02-26T08:07:31;4.70;81.70
78619;DHT22;67941;52.506;5.470;2024-02-26T08:10:00;4.70;81.80
78619;DHT22;67941;52.506;5.470;2024-02-26T08:12:30;4.70;81.70
78619;DHT22;67941;52.506;5.470;2024-02-26T08:14:59;4.80;81.70
78619;DHT22;67941;52.506;5.470;2024-02-26T08:17:28;4.80;81.70
78619;DHT22;67941;52.506;5.470;2024-02-26T08:19:58;4.90;81.60
78619;DHT22;67941;52.506;5.470;2024-02-26T08:22:30;4.90;81.70
78619;DHT22;67941;52.506;5.470;2024-02-26T08:24:59;4.90;81.60
78619;DHT22;67941;52.506;5.470;2024-02-26T08:27:32;4.90;81.60
78619;DHT22;67941;52.506;5.470;2024-02-26T08:30:01;5.00;81.60
78619;DHT22;67941;52.506;5.470;2024-02-26T08:32:30;5.00;81.60
78619;DHT22;67941;52.506;5.470;2024-02-26T08:34:59;5.00;81.60
78619;DHT22;67941;52.506;5.470;2024-02-26T08:37:30;5.00;81.60
78619;DHT22;67941;52.506;5.470;2024-02-26T08:39:59;5.00;81.50
78619;DHT22;67941;52.506;5.470;2024-02-26T08:42:29;5.10;81.50
78619;DHT22;67941;52.506;5.470;2024-02-26T08:44:58;5.10;81.50
78619;DHT22;67941;52.506;5.470;2024-02-26T08:47:28;5.10;81.40
78619;DHT22;67941;52.506;5.470;2024-02-26T08:49:58;5.10;81.40
78619;DHT22;67941;52.506;5.470;2024-02-26T08:52:27;5.10;81.40
78619;DHT22;67941;52.506;5.470;2024-02-26T08:54:58;5.10;81.40
78619;DHT22;67941;52.506;5.470;2024-02-26T08:57:28;5.10;81.40
78619;DHT22;67941;52.506;5.470;2024-02-26T09:00:01;5.20;81.40
78619;DHT22;67941;52.506;5.470;2024-02-26T09:02:30;5.20;81.40
78619;DHT22;67941;52.506;5.470;2024-02-26T09:04:59;5.30;81.50
78619;DHT22;67941;52.506;5.470;2024-02-26T09:07:28;5.30;81.50
78619;DHT22;67941;52.506;5.470;2024-02-26T09:09:59;5.30;81.50
78619;DHT22;67941;52.506;5.470;2024-02-26T09:12:28;5.30;81.50
78619;DHT22;67941;52.506;5.470;2024-02-26T09:14:59;5.40;81.40
78619;DHT22;67941;52.506;5.470;2024-02-26T09:17:28;5.40;81.30
78619;DHT22;67941;52.506;5.470;2024-02-26T09:19:57;5.40;81.30
78619;DHT22;67941;52.506;5.470;2024-02-26T09:22:26;5.40;81.30
78619;DHT22;67941;52.506;5.470;2024-02-26T09:24:55;5.50;81.20
78619;DHT22;67941;52.506;5.470;2024-02-26T09:27:26;5.50;81.20
78619;DHT22;67941;52.506;5.470;2024-02-26T09:29:56;5.50;81.20
78619;DHT22;67941;52.506;5.470;2024-02-26T09:32:25;5.50;81.40
78619;DHT22;67941;52.506;5.470;2024-02-26T09:34:54;5.50;81.30
78619;DHT22;67941;52.506;5.470;2024-02-26T09:37:23;5.50;81.20
78619;DHT22;67941;52.506;5.470;2024-02-26T09:39:51;5.50;81.10
78619;DHT22;67941;52.506;5.470;2024-02-26T09:42:20;5.50;81.10
78619;DHT22;67941;52.506;5.470;2024-02-26T09:44:54;5.50;81.20
78619;DHT22;67941;52.506;5.470;2024-02-26T09:47:23;5.50;81.20
78619;DHT22;67941;52.506;5.470;2024-02-26T09:49:54;5.60;81.10
78619;DHT22;67941;52.506;5.470;2024-02-26T09:52:26;5.60;81.10
78619;DHT22;67941;52.506;5.470;2024-02-26T09:54:55;5.60;81.10
78619;DHT22;67941;52.506;5.470;2024-02-26T09:57:25;5.60;81.10
78619;DHT22;67941;52.506;5.470;2024-02-26T09:59:59;5.60;81.00
78619;DHT22;67941;52.506;5.470;2024-02-26T10:02:36;5.60;81.00
78619;DHT22;67941;52.506;5.470;2024-02-26T10:05:10;5.60;81.00
78619;DHT22;67941;52.506;5.470;2024-02-26T10:07:42;5.60;81.00
78619;DHT22;67941;52.506;5.470;2024-02-26T10:10:13;5.60;81.00
78619;DHT22;67941;52.506;5.470;2024-02-26T10:12:42;5.70;81.00
78619;DHT22;67941;52.506;5.470;2024-02-26T10:15:14;5.70;81.10
78619;DHT22;67941;52.506;5.470;2024-02-26T10:17:43;5.80;81.10
78619;DHT22;67941;52.506;5.470;2024-02-26T10:20:13;5.80;81.00
78619;DHT22;67941;52.506;5.470;2024-02-26T10:22:43;5.80;80.90
78619;DHT22;67941;52.506;5.470;2024-02-26T10:25:12;5.90;80.90
78619;DHT22;67941;52.506;5.470;2024-02-26T10:27:41;5.90;80.90
78619;DHT22;67941;52.506;5.470;2024-02-26T10:30:20;5.90;80.90
78619;DHT22;67941;52.506;5.470;2024-02-26T10:32:51;6.00;81.00
78619;DHT22;67941;52.506;5.470;2024-02-26T10:35:39;6.00;80.90
78619;DHT22;67941;52.506;5.470;2024-02-26T10:38:08;6.10;81.00
78619;DHT22;67941;52.506;5.470;2024-02-26T10:40:37;6.10;80.90
78619;DHT22;67941;52.506;5.470;2024-02-26T10:43:07;6.20;80.80
78619;DHT22;67941;52.506;5.470;2024-02-26T10:45:38;6.20;80.80
78619;DHT22;67941;52.506;5.470;2024-02-26T10:48:10;6.30;80.90
78619;DHT22;67941;52.506;5.470;2024-02-26T10:50:40;6.30;80.80
78619;DHT22;67941;52.506;5.470;2024-02-26T10:53:13;6.40;80.90
78619;DHT22;67941;52.506;5.470;2024-02-26T10:55:48;6.40;80.70
78619;DHT22;67941;52.506;5.470;2024-02-26T10:58:18;6.40;80.70
78619;DHT22;67941;52.506;5.470;2024-02-26T11:00:54;6.50;80.50
78619;DHT22;67941;52.506;5.470;2024-02-26T11:03:25;6.40;80.50
78619;DHT22;67941;52.506;5.470;2024-02-26T11:05:56;6.40;80.30
78619;DHT22;67941;52.506;5.470;2024-02-26T11:08:26;6.40;80.40
78619;DHT22;67941;52.506;5.470;2024-02-26T11:10:58;6.40;80.40
78619;DHT22;67941;52.506;5.470;2024-02-26T11:13:28;6.40;80.40
78619;DHT22;67941;52.506;5.470;2024-02-26T11:16:02;6.40;80.40
78619;DHT22;67941;52.506;5.470;2024-02-26T11:18:31;6.40;80.30
78619;DHT22;67941;52.506;5.470;2024-02-26T11:21:02;6.40;80.30
78619;DHT22;67941;52.506;5.470;2024-02-26T11:23:31;6.50;80.20
78619;DHT22;67941;52.506;5.470;2024-02-26T11:26:03;6.50;80.20
78619;DHT22;67941;52.506;5.470;2024-02-26T11:28:33;6.50;80.20
78619;DHT22;67941;52.506;5.470;2024-02-26T11:31:05;6.60;80.20
78619;DHT22;67941;52.506;5.470;2024-02-26T11:33:35;6.60;80.30
78619;DHT22;67941;52.506;5.470;2024-02-26T11:36:08;6.70;80.10
78619;DHT22;67941;52.506;5.470;2024-02-26T11:38:37;6.70;80.00
78619;DHT22;67941;52.506;5.470;2024-02-26T11:41:07;6.70;79.90
78619;DHT22;67941;52.506;5.470;2024-02-26T11:43:50;6.70;79.90
78619;DHT22;67941;52.506;5.470;2024-02-26T11:46:29;6.70;79.80
78619;DHT22;67941;52.506;5.470;2024-02-26T11:49:00;6.70;79.80
78619;DHT22;67941;52.506;5.470;2024-02-26T11:51:33;6.70;79.70
78619;DHT22;67941;52.506;5.470;2024-02-26T11:54:02;6.70;79.80
78619;DHT22;67941;52.506;5.470;2024-02-26T11:56:34;6.70;79.80
78619;DHT22;67941;52.506;5.470;2024-02-26T11:59:09;6.70;79.80
78619;DHT22;67941;52.506;5.470;2024-02-26T12:01:43;6.80;79.90
78619;DHT22;67941;52.506;5.470;2024-02-26T12:04:18;6.90;79.90
78619;DHT22;67941;52.506;5.470;2024-02-26T12:06:51;6.90;79.80
78619;DHT22;67941;52.506;5.470;2024-02-26T12:09:40;7.00;79.70
78619;DHT22;67941;52.506;5.470;2024-02-26T12:12:11;7.00;79.70
78619;DHT22;67941;52.506;5.470;2024-02-26T12:14:51;7.00;79.60
78619;DHT22;67941;52.506;5.470;2024-02-26T12:17:24;7.10;79.70
78619;DHT22;67941;52.506;5.470;2024-02-26T12:19:53;7.10;79.50
78619;DHT22;67941;52.506;5.470;2024-02-26T12:22:23;7.10;79.40
78619;DHT22;67941;52.506;5.470;2024-02-26T12:24:58;7.10;79.40
78619;DHT22;67941;52.506;5.470;2024-02-26T12:27:29;7.10;79.50
78619;DHT22;67941;52.506;5.470;2024-02-26T12:29:58;7.10;79.40
78619;DHT22;67941;52.506;5.470;2024-02-26T12:32:31;7.20;79.30
78619;DHT22;67941;52.506;5.470;2024-02-26T12:35:00;7.20;79.40
78619;DHT22;67941;52.506;5.470;2024-02-26T12:37:29;7.20;79.30
78619;DHT22;67941;52.506;5.470;2024-02-26T12:39:58;7.30;79.30
78619;DHT22;67941;52.506;5.470;2024-02-26T12:42:27;7.30;79.30
78619;DHT22;67941;52.506;5.470;2024-02-26T12:44:58;7.40;79.30
78619;DHT22;67941;52.506;5.470;2024-02-26T12:47:27;7.50;79.30
78619;DHT22;67941;52.506;5.470;2024-02-26T12:49:57;7.50;79.20
78619;DHT22;67941;52.506;5.470;2024-02-26T12:52:26;7.50;79.10
78619;DHT22;67941;52.506;5.470;2024-02-26T12:54:55;7.60;79.00
78619;DHT22;67941;52.506;5.470;2024-02-26T12:57:24;7.50;78.90
78619;DHT22;67941;52.506;5.470;2024-02-26T12:59:54;7.50;78.90
78619;DHT22;67941;52.506;5.470;2024-02-26T13:02:24;7.50;79.00
78619;DHT22;67941;52.506;5.470;2024-02-26T13:04:56;7.50;78.80
78619;DHT22;67941;52.506;5.470;2024-02-26T13:07:27;7.50;78.60
78619;DHT22;67941;52.506;5.470;2024-02-26T13:09:56;7.50;78.60
78619;DHT22;67941;52.506;5.470;2024-02-26T13:12:25;7.40;78.80
78619;DHT22;67941;52.506;5.470;2024-02-26T13:15:00;7.40;78.80
78619;DHT22;67941;52.506;5.470;2024-02-26T13:17:32;7.40;78.60
78619;DHT22;67941;52.506;5.470;2024-02-26T13:20:04;7.40;78.60
78619;DHT22;67941;52.506;5.470;2024-02-26T13:22:33;7.40;78.60
78619;DHT22;67941;52.506;5.470;2024-02-26T13:25:02;7.40;78.70
78619;DHT22;67941;52.506;5.470;2024-02-26T13:27:33;7.40;78.70
78619;DHT22;67941;52.506;5.470;2024-02-26T13:30:08;7.40;78.60
78619;DHT22;67941;52.506;5.470;2024-02-26T13:32:39;7.40;78.40
78619;DHT22;67941;52.506;5.470;2024-02-26T13:35:12;7.40;78.40
78619;DHT22;67941;52.506;5.470;2024-02-26T13:37:41;7.40;78.40
78619;DHT22;67941;52.506;5.470;2024-02-26T13:40:11;7.40;78.50
78619;DHT22;67941;52.506;5.470;2024-02-26T13:42:40;7.50;78.30
78619;DHT22;67941;52.506;5.470;2024-02-26T13:45:09;7.40;78.20
78619;DHT22;67941;52.506;5.470;2024-02-26T13:47:38;7.40;78.20
78619;DHT22;67941;52.506;5.470;2024-02-26T13:50:07;7.40;78.20
78619;DHT22;67941;52.506;5.470;2024-02-26T13:52:39;7.40;78.30
78619;DHT22;67941;52.506;5.470;2024-02-26T13:55:08;7.50;78.20
78619;DHT22;67941;52.506;5.470;2024-02-26T13:57:37;7.50;78.10
78619;DHT22;67941;52.506;5.470;2024-02-26T14:00:08;7.50;78.00
78619;DHT22;67941;52.506;5.470;2024-02-26T14:02:40;7.40;78.00
78619;DHT22;67941;52.506;5.470;2024-02-26T14:05:12;7.40;77.90
78619;DHT22;67941;52.506;5.470;2024-02-26T14:07:44;7.40;77.90
78619;DHT22;67941;52.506;5.470;2024-02-26T14:10:13;7.30;77.80
78619;DHT22;67941;52.506;5.470;2024-02-26T14:12:49;7.20;77.80
78619;DHT22;67941;52.506;5.470;2024-02-26T14:15:18;7.20;77.90
78619;DHT22;67941;52.506;5.470;2024-02-26T14:17:47;7.20;77.80
78619;DHT22;67941;52.506;5.470;2024-02-26T14:20:20;7.20;77.70
78619;DHT22;67941;52.506;5.470;2024-02-26T14:22:52;7.20;77.70
78619;DHT22;67941;52.506;5.470;2024-02-26T14:25:21;7.20;77.70
78619;DHT22;67941;52.506;5.470;2024-02-26T14:27:53;7.20;77.90
78619;DHT22;67941;52.506;5.470;2024-02-26T14:30:23;7.20;77.80
78619;DHT22;67941;52.506;5.470;2024-02-26T14:32:51;7.20;77.70
78619;DHT22;67941;52.506;5.470;2024-02-26T14:35:20;7.20;77.60
78619;DHT22;67941;52.506;5.470;2024-02-26T14:37:52;7.20;77.50
78619;DHT22;67941;52.506;5.470;2024-02-26T14:40:26;7.20;77.40
78619;DHT22;67941;52.506;5.470;2024-02-26T14:42:55;7.10;77.50
78619;DHT22;67941;52.506;5.470;2024-02-26T14:45:27;7.00;77.40
78619;DHT22;67941;52.506;5.470;2024-02-26T14:47:56;7.00;77.30
78619;DHT22;67941;52.506;5.470;2024-02-26T14:50:24;7.00;77.40
78619;DHT22;67941;52.506;5.470;2024-02-26T14:52:56;7.00;77.40
78619;DHT22;67941;52.506;5.470;2024-02-26T14:55:26;7.00;77.40
78619;DHT22;67941;52.506;5.470;2024-02-26T14:57:54;7.00;77.40
78619;DHT22;67941;52.506;5.470;2024-02-26T15:00:26;7.00;77.50
78619;DHT22;67941;52.506;5.470;2024-02-26T15:02:55;7.00;77.50
78619;DHT22;67941;52.506;5.470;2024-02-26T15:05:24;6.90;77.50
78619;DHT22;67941;52.506;5.470;2024-02-26T15:07:55;6.90;77.50
78619;DHT22;67941;52.506;5.470;2024-02-26T15:10:24;6.90;77.50
78619;DHT22;67941;52.506;5.470;2024-02-26T15:12:56;6.90;77.50
78619;DHT22;67941;52.506;5.470;2024-02-26T15:15:25;6.90;77.50
78619;DHT22;67941;52.506;5.470;2024-02-26T15:17:54;6.80;77.30
78619;DHT22;67941;52.506;5.470;2024-02-26T15:20:23;6.80;77.20
78619;DHT22;67941;52.506;5.470;2024-02-26T15:22:51;6.80;77.20
78619;DHT22;67941;52.506;5.470;2024-02-26T15:25:23;6.70;77.20
78619;DHT22;67941;52.506;5.470;2024-02-26T15:27:52;6.60;77.20
78619;DHT22;67941;52.506;5.470;2024-02-26T15:30:21;6.60;77.20
78619;DHT22;67941;52.506;5.470;2024-02-26T15:32:49;6.60;77.30
78619;DHT22;67941;52.506;5.470;2024-02-26T15:35:18;6.50;77.30
78619;DHT22;67941;52.506;5.470;2024-02-26T15:37:47;6.60;77.30
78619;DHT22;67941;52.506;5.470;2024-02-26T15:40:16;6.60;77.20
78619;DHT22;67941;52.506;5.470;2024-02-26T15:42:48;6.50;77.30
78619;DHT22;67941;52.506;5.470;2024-02-26T15:45:17;6.50;77.30
78619;DHT22;67941;52.506;5.470;2024-02-26T15:47:47;6.50;77.20
78619;DHT22;67941;52.506;5.470;2024-02-26T15:50:16;6.50;77.20
78619;DHT22;67941;52.506;5.470;2024-02-26T15:52:45;6.40;77.20
78619;DHT22;67941;52.506;5.470;2024-02-26T15:55:14;6.40;77.20
78619;DHT22;67941;52.506;5.470;2024-02-26T15:57:43;6.40;77.20
78619;DHT22;67941;52.506;5.470;2024-02-26T16:00:16;6.40;77.20
78619;DHT22;67941;52.506;5.470;2024-02-26T16:02:47;6.40;77.20